Time;durP1;ratioP1;P1;durP2;ratioP2;P2;SDS_P1;SDS_P2;PMS_P1;PMS_P2;Temp;Humidity;BMP_temperature;BMP_pressure;BME280_temperature;BME280_humidity;BME280_pressure;Samples;Min_cycle;Max_cycle;Signal;HPM_P1;HPM_P2
2022/12/11 00:00:07;;;;;;;12.45;9.20;;;;;;;;;;5080124;28;20201;-85
2022/12/11 00:02:34;;;;;;;12.73;9.68;;;;;;;;;;5079655;28;20751;-85
2022/12/11 00:05:02;;;;;;;12.52;9.57;;;;;;;;;;5079680;28;20701;-86
2022/12/11 00:07:29;;;;;;;13.23;9.93;;;;;;;;;;5078811;28;20284;-87
2022/12/11 00:09:57;;;;;;;13.60;10.43;;;;;;;;;;5079385;28;20201;-85
2022/12/11 00:12:26;;;;;;;11.13;9.73;;;;;;;;;;5079453;28;20682;-84
2022/12/11 00:14:54;;;;;;;11.43;9.65;;;;;;;;;;5079812;28;20212;-87
2022/12/11 00:17:21;;;;;;;15.25;9.77;;;;;;;;;;5079306;28;20658;-85
2022/12/11 00:19:48;;;;;;;12.70;9.57;;;;;;;;;;5079194;28;20229;-86
2022/12/11 00:22:16;;;;;;;12.32;10.15;;;;;;;;;;5077108;28;20238;-86
2022/12/11 00:24:43;;;;;;;10.95;8.90;;;;;;;;;;5076574;28;20248;-86
2022/12/11 00:27:11;;;;;;;10.70;9.32;;;;;;;;;;5077735;28;20209;-86
2022/12/11 00:29:40;;;;;;;12.07;9.15;;;;;;;;;;5077600;28;20228;-86
2022/12/11 00:32:07;;;;;;;11.50;9.38;;;;;;;;;;5077777;28;20616;-86
2022/12/11 00:34:35;;;;;;;11.48;9.18;;;;;;;;;;5078489;28;20220;-86
2022/12/11 00:37:03;;;;;;;12.98;10.02;;;;;;;;;;5079022;28;20685;-86
2022/12/11 00:39:30;;;;;;;12.10;9.45;;;;;;;;;;5078853;28;20197;-84
2022/12/11 00:41:58;;;;;;;12.68;9.52;;;;;;;;;;5078938;28;20312;-85
2022/12/11 00:44:27;;;;;;;12.43;9.75;;;;;;;;;;5078948;28;20201;-84
2022/12/11 00:46:57;;;;;;;12.55;9.85;;;;;;;;;;5081898;28;20810;-89
2022/12/11 00:49:24;;;;;;;10.98;8.93;;;;;;;;;;5082108;28;20201;-88
2022/12/11 00:51:52;;;;;;;12.10;9.52;;;;;;;;;;5083014;28;20610;-88
2022/12/11 00:54:19;;;;;;;11.25;9.20;;;;;;;;;;5083483;28;20205;-88
2022/12/11 00:56:47;;;;;;;11.73;9.82;;;;;;;;;;5082938;28;20242;-89
2022/12/11 00:59:14;;;;;;;12.38;10.27;;;;;;;;;;5083110;28;20706;-89
2022/12/11 01:01:42;;;;;;;14.13;12.18;;;;;;;;;;5082086;28;20260;-85
2022/12/11 01:04:11;;;;;;;12.00;10.15;;;;;;;;;;5078624;28;20212;-87
2022/12/11 01:06:39;;;;;;;11.98;9.95;;;;;;;;;;5078745;28;20256;-85
2022/12/11 01:11:52;;;;;;;9.90;7.90;;;;;;;;;;5078149;28;20227;-86
2022/12/11 01:14:19;;;;;;;12.57;9.57;;;;;;;;;;5077175;28;20205;-87
2022/12/11 01:16:47;;;;;;;12.88;10.35;;;;;;;;;;5082134;28;20243;-88
2022/12/11 01:19:16;;;;;;;13.10;10.45;;;;;;;;;;5082096;28;20322;-87
2022/12/11 01:21:43;;;;;;;12.63;10.45;;;;;;;;;;5080999;28;20319;-87
2022/12/11 01:24:11;;;;;;;12.27;9.48;;;;;;;;;;5080804;28;20197;-89
2022/12/11 01:26:39;;;;;;;13.23;10.05;;;;;;;;;;5081596;28;20263;-88
2022/12/11 01:29:06;;;;;;;16.90;10.07;;;;;;;;;;5081409;28;20292;-89
2022/12/11 01:31:34;;;;;;;13.75;10.25;;;;;;;;;;5082323;28;20276;-88
2022/12/11 01:34:01;;;;;;;9.82;8.82;;;;;;;;;;5081007;28;20204;-88
2022/12/11 01:36:30;;;;;;;9.98;7.53;;;;;;;;;;5081061;28;20233;-88
2022/12/11 01:38:58;;;;;;;11.52;8.23;;;;;;;;;;5081042;28;20261;-88
2022/12/11 01:41:25;;;;;;;10.23;7.85;;;;;;;;;;5081329;28;20266;-88
2022/12/11 01:44:02;;;;;;;9.65;7.35;;;;;;;;;;5081452;28;20212;-88
2022/12/11 01:46:32;;;;;;;12.02;8.85;;;;;;;;;;5081855;28;20291;-88
2022/12/11 01:49:01;;;;;;;9.65;7.60;;;;;;;;;;5082294;28;20225;-88
2022/12/11 01:51:33;;;;;;;9.63;7.30;;;;;;;;;;5081307;28;20581;-88
2022/12/11 01:54:04;;;;;;;9.70;8.10;;;;;;;;;;5081378;28;20191;-88
2022/12/11 01:56:34;;;;;;;11.18;8.93;;;;;;;;;;5081796;28;20193;-87
2022/12/11 01:59:06;;;;;;;9.13;7.22;;;;;;;;;;5084838;28;20197;-89
2022/12/11 02:01:40;;;;;;;10.60;8.45;;;;;;;;;;5085267;28;20271;-88
2022/12/11 02:04:09;;;;;;;7.13;6.43;;;;;;;;;;5085104;28;20555;-88
2022/12/11 02:06:41;;;;;;;9.55;7.85;;;;;;;;;;5085276;28;20339;-88
2022/12/11 02:09:12;;;;;;;10.85;7.63;;;;;;;;;;5085418;28;20185;-88
2022/12/11 02:11:52;;;;;;;10.52;8.48;;;;;;;;;;5085692;28;20248;-89
2022/12/11 02:14:28;;;;;;;9.68;7.70;;;;;;;;;;5085270;28;20220;-88
2022/12/11 02:16:59;;;;;;;9.13;7.50;;;;;;;;;;5085271;28;20188;-88
2022/12/11 02:19:49;;;;;;;11.57;8.65;;;;;;;;;;5085189;28;20225;-89
2022/12/11 02:22:28;;;;;;;10.52;7.90;;;;;;;;;;5084209;28;20224;-88
2022/12/11 02:25:09;;;;;;;9.48;8.45;;;;;;;;;;5084968;28;20548;-88
2022/12/11 02:27:44;;;;;;;9.75;7.43;;;;;;;;;;5083144;28;20236;-89
2022/12/11 02:30:14;;;;;;;9.05;6.55;;;;;;;;;;5083723;28;20200;-89
2022/12/11 02:32:47;;;;;;;9.07;7.05;;;;;;;;;;5083382;28;20247;-89
2022/12/11 02:35:19;;;;;;;13.73;8.25;;;;;;;;;;5084098;28;20192;-88
2022/12/11 02:37:48;;;;;;;8.55;7.20;;;;;;;;;;5083763;28;20668;-90
2022/12/11 02:40:19;;;;;;;8.50;5.95;;;;;;;;;;5083715;28;20231;-89
2022/12/11 02:42:49;;;;;;;5.63;5.07;;;;;;;;;;5084284;28;20264;-88
2022/12/11 02:45:19;;;;;;;6.38;5.53;;;;;;;;;;5084316;28;20197;-88
2022/12/11 02:47:48;;;;;;;9.25;7.07;;;;;;;;;;5084419;28;20243;-88
2022/12/11 02:50:19;;;;;;;10.00;5.95;;;;;;;;;;5084577;28;20236;-89
2022/12/11 02:52:48;;;;;;;8.27;7.32;;;;;;;;;;5083921;28;20658;-86
2022/12/11 02:55:16;;;;;;;8.43;6.55;;;;;;;;;;5083156;28;20673;-86
2022/12/11 02:57:48;;;;;;;8.48;6.72;;;;;;;;;;5082644;28;20225;-86
2022/12/11 03:00:18;;;;;;;10.88;8.13;;;;;;;;;;5082940;28;20216;-87
2022/12/11 03:02:49;;;;;;;8.80;6.93;;;;;;;;;;5083283;28;20233;-86
2022/12/11 03:05:17;;;;;;;7.22;5.30;;;;;;;;;;5083940;28;20264;-86
2022/12/11 03:07:45;;;;;;;9.32;6.72;;;;;;;;;;5083363;28;20232;-86
2022/12/11 03:10:15;;;;;;;7.78;6.80;;;;;;;;;;5082250;28;20198;-86
2022/12/11 03:12:45;;;;;;;8.25;6.50;;;;;;;;;;5083269;28;20232;-87
2022/12/11 03:15:19;;;;;;;5.80;5.20;;;;;;;;;;5083942;28;20185;-87
2022/12/11 03:17:57;;;;;;;6.63;5.93;;;;;;;;;;5081822;28;20743;-88
2022/12/11 03:20:35;;;;;;;8.27;6.97;;;;;;;;;;5078827;28;20276;-89
2022/12/11 03:23:10;;;;;;;10.45;8.27;;;;;;;;;;5078402;28;20362;-88
2022/12/11 03:25:44;;;;;;;8.77;6.38;;;;;;;;;;5079666;28;20275;-88
2022/12/11 03:28:14;;;;;;;8.73;7.18;;;;;;;;;;5080315;28;20569;-89
2022/12/11 03:30:44;;;;;;;8.35;6.82;;;;;;;;;;5081289;28;20189;-88
2022/12/11 03:33:15;;;;;;;9.07;7.28;;;;;;;;;;5081957;28;20193;-88
2022/12/11 03:35:45;;;;;;;7.05;5.63;;;;;;;;;;5080811;28;20638;-86
2022/12/11 03:38:18;;;;;;;8.35;6.93;;;;;;;;;;5075869;28;20642;-84
2022/12/11 03:40:48;;;;;;;7.78;6.20;;;;;;;;;;5087265;28;20207;-86
2022/12/11 03:43:16;;;;;;;11.00;7.05;;;;;;;;;;5096100;28;20653;-86
2022/12/11 03:45:46;;;;;;;7.70;6.90;;;;;;;;;;5095594;28;20356;-85
2022/12/11 03:48:14;;;;;;;7.97;6.85;;;;;;;;;;5095660;28;20262;-86
2022/12/11 03:50:42;;;;;;;7.75;7.00;;;;;;;;;;5095056;28;20231;-87
2022/12/11 03:53:11;;;;;;;6.43;5.82;;;;;;;;;;5095551;28;20231;-88
2022/12/11 03:55:40;;;;;;;9.38;6.57;;;;;;;;;;5095530;28;20227;-86
2022/12/11 03:58:07;;;;;;;9.10;7.03;;;;;;;;;;5095257;28;20251;-86
2022/12/11 04:00:35;;;;;;;9.98;6.72;;;;;;;;;;5095120;28;20196;-83
2022/12/11 04:03:13;;;;;;;9.18;7.63;;;;;;;;;;5095168;28;20266;-87
2022/12/11 04:05:42;;;;;;;7.40;5.93;;;;;;;;;;5094846;28;20196;-87
2022/12/11 04:08:10;;;;;;;6.57;5.75;;;;;;;;;;5095383;28;20291;-87
2022/12/11 04:10:37;;;;;;;7.38;5.55;;;;;;;;;;5095390;28;20308;-85
2022/12/11 04:13:05;;;;;;;5.75;5.25;;;;;;;;;;5094495;28;20220;-87
2022/12/11 04:15:31;;;;;;;7.43;5.72;;;;;;;;;;5095142;28;20232;-87
2022/12/11 04:26:18;;;;;;;7.85;6.28;;;;;;;;;;5094811;28;20253;-87
2022/12/11 04:28:47;;;;;;;10.00;7.45;;;;;;;;;;5094335;28;20688;-87
2022/12/11 04:31:16;;;;;;;8.30;6.57;;;;;;;;;;5095024;28;20307;-87
2022/12/11 04:33:44;;;;;;;8.18;6.78;;;;;;;;;;5094376;28;20282;-84
2022/12/11 04:36:14;;;;;;;7.88;6.18;;;;;;;;;;5094615;28;20578;-87
2022/12/11 04:38:41;;;;;;;8.68;6.45;;;;;;;;;;5094375;28;20291;-87
2022/12/11 04:41:11;;;;;;;6.68;5.97;;;;;;;;;;5094362;28;20336;-86
2022/12/11 04:43:39;;;;;;;8.93;6.18;;;;;;;;;;5094576;28;20234;-88
2022/12/11 04:46:08;;;;;;;8.90;6.93;;;;;;;;;;5094804;28;20212;-84
2022/12/11 04:48:37;;;;;;;9.05;7.15;;;;;;;;;;5094504;28;20311;-87
2022/12/11 04:51:06;;;;;;;8.15;7.30;;;;;;;;;;5094875;28;20306;-84
2022/12/11 04:53:35;;;;;;;8.48;6.88;;;;;;;;;;5094279;28;20206;-85
2022/12/11 04:56:04;;;;;;;10.63;7.28;;;;;;;;;;5094895;28;20599;-87
2022/12/11 04:58:32;;;;;;;8.48;6.68;;;;;;;;;;5094293;28;20236;-85
2022/12/11 05:00:59;;;;;;;8.52;7.45;;;;;;;;;;5094588;28;20204;-85
2022/12/11 05:03:27;;;;;;;11.02;8.90;;;;;;;;;;5094136;28;20238;-84
2022/12/11 05:05:55;;;;;;;8.60;6.43;;;;;;;;;;5094067;28;20283;-86
2022/12/11 05:08:22;;;;;;;11.48;7.65;;;;;;;;;;5093511;28;20252;-85
2022/12/11 05:10:57;;;;;;;7.28;5.88;;;;;;;;;;5094339;28;20341;-86
2022/12/11 05:13:25;;;;;;;7.38;6.15;;;;;;;;;;5094238;28;20754;-83
2022/12/11 05:15:52;;;;;;;7.28;6.28;;;;;;;;;;5093948;28;20212;-86
2022/12/11 05:18:21;;;;;;;9.75;7.30;;;;;;;;;;5094169;28;20222;-85
2022/12/11 05:20:56;;;;;;;10.82;8.07;;;;;;;;;;5093686;28;20712;-86
2022/12/11 05:23:24;;;;;;;10.02;7.55;;;;;;;;;;5093884;28;20544;-86
2022/12/11 05:25:57;;;;;;;8.73;7.18;;;;;;;;;;5093695;28;20291;-84
2022/12/11 05:28:28;;;;;;;10.30;8.43;;;;;;;;;;5093481;28;20291;-84
2022/12/11 05:30:57;;;;;;;10.32;8.07;;;;;;;;;;5093221;28;20279;-83
2022/12/11 05:33:25;;;;;;;8.93;7.60;;;;;;;;;;5093466;28;20204;-85
2022/12/11 05:35:52;;;;;;;10.65;8.55;;;;;;;;;;5093779;28;20214;-86
2022/12/11 05:38:20;;;;;;;11.18;8.55;;;;;;;;;;5093279;28;20346;-86
2022/12/11 05:40:58;;;;;;;12.32;8.95;;;;;;;;;;5093043;28;20231;-84
2022/12/11 05:43:26;;;;;;;7.88;7.03;;;;;;;;;;5093335;28;20185;-85
2022/12/11 05:45:53;;;;;;;11.07;9.20;;;;;;;;;;5093235;28;20200;-85
2022/12/11 05:48:21;;;;;;;10.18;8.77;;;;;;;;;;5093353;28;20307;-87
2022/12/11 05:50:58;;;;;;;10.40;8.48;;;;;;;;;;5093031;28;20236;-86
2022/12/11 05:53:26;;;;;;;10.95;8.98;;;;;;;;;;5093367;28;20632;-87
2022/12/11 05:55:53;;;;;;;11.10;9.07;;;;;;;;;;5093879;28;20285;-86
2022/12/11 05:58:22;;;;;;;14.88;9.10;;;;;;;;;;5093780;28;20214;-86
2022/12/11 06:00:50;;;;;;;12.23;9.15;;;;;;;;;;5093897;28;20274;-87
2022/12/11 06:03:17;;;;;;;11.68;8.93;;;;;;;;;;5092622;28;20200;-86
2022/12/11 06:05:45;;;;;;;13.93;10.23;;;;;;;;;;5093821;28;20264;-87
2022/12/11 06:08:12;;;;;;;11.48;8.75;;;;;;;;;;5093883;28;20310;-86
2022/12/11 06:10:48;;;;;;;12.82;9.27;;;;;;;;;;5093572;28;20688;-84
2022/12/11 06:13:16;;;;;;;10.63;8.80;;;;;;;;;;5094052;28;20216;-86
2022/12/11 06:15:45;;;;;;;11.40;9.05;;;;;;;;;;5093987;28;20238;-85
2022/12/11 06:18:12;;;;;;;11.48;8.63;;;;;;;;;;5093426;28;20197;-85
2022/12/11 06:20:40;;;;;;;11.98;8.85;;;;;;;;;;5093069;28;20616;-85
2022/12/11 06:23:07;;;;;;;13.88;10.77;;;;;;;;;;5093432;28;20201;-87
2022/12/11 06:25:35;;;;;;;14.15;9.65;;;;;;;;;;5093595;28;20285;-84
2022/12/11 06:28:03;;;;;;;13.82;8.88;;;;;;;;;;5092792;28;20708;-83
2022/12/11 06:30:30;;;;;;;12.55;9.70;;;;;;;;;;5093037;28;20611;-85
2022/12/11 06:33:00;;;;;;;11.57;8.98;;;;;;;;;;5092809;28;20612;-85
2022/12/11 06:35:27;;;;;;;9.63;7.88;;;;;;;;;;5093706;28;20360;-85
2022/12/11 06:37:55;;;;;;;13.20;10.07;;;;;;;;;;5094267;28;20200;-81
2022/12/11 06:40:23;;;;;;;8.65;7.75;;;;;;;;;;5094083;28;20287;-86
2022/12/11 06:42:50;;;;;;;11.23;8.40;;;;;;;;;;5094080;28;20220;-85
2022/12/11 06:45:18;;;;;;;10.48;8.20;;;;;;;;;;5096681;28;20243;-85
2022/12/11 06:47:45;;;;;;;11.02;8.93;;;;;;;;;;5098104;28;20291;-83
2022/12/11 06:50:14;;;;;;;12.30;9.93;;;;;;;;;;5097596;28;20572;-85
2022/12/11 06:52:42;;;;;;;10.55;8.65;;;;;;;;;;5096952;28;20269;-84
2022/12/11 06:55:09;;;;;;;12.65;8.95;;;;;;;;;;5096240;28;20209;-85
2022/12/11 06:57:37;;;;;;;14.73;12.05;;;;;;;;;;5096519;28;20201;-86
2022/12/11 07:00:06;;;;;;;17.52;15.77;;;;;;;;;;5096739;28;20287;-85
2022/12/11 07:02:33;;;;;;;11.77;10.57;;;;;;;;;;5096054;28;20628;-86
2022/12/11 07:05:01;;;;;;;8.38;7.45;;;;;;;;;;5096050;28;20248;-85
2022/12/11 07:07:30;;;;;;;8.48;6.85;;;;;;;;;;5096269;28;20278;-86
2022/12/11 07:09:57;;;;;;;6.82;6.13;;;;;;;;;;5096496;28;20220;-84
2022/12/11 07:12:25;;;;;;;7.72;6.53;;;;;;;;;;5095490;28;20305;-85
2022/12/11 07:14:52;;;;;;;5.97;5.38;;;;;;;;;;5096739;28;20686;-83
2022/12/11 07:17:20;;;;;;;5.45;4.88;;;;;;;;;;5096542;28;20205;-86
2022/12/11 07:19:47;;;;;;;6.15;5.55;;;;;;;;;;5095888;28;20231;-85
2022/12/11 07:22:15;;;;;;;5.57;4.68;;;;;;;;;;5095308;28;20311;-85
2022/12/11 07:24:43;;;;;;;9.27;7.32;;;;;;;;;;5095234;28;20204;-85
2022/12/11 07:27:26;;;;;;;6.97;6.13;;;;;;;;;;5101695;28;20290;-86
2022/12/11 07:29:54;;;;;;;6.55;5.13;;;;;;;;;;5094847;28;20255;-85
2022/12/11 07:32:22;;;;;;;6.97;5.18;;;;;;;;;;5094695;28;20232;-85
2022/12/11 07:34:50;;;;;;;5.03;4.53;;;;;;;;;;5094992;28;20295;-84
2022/12/11 07:37:17;;;;;;;7.00;5.38;;;;;;;;;;5095046;28;20200;-85
2022/12/11 07:39:47;;;;;;;5.03;3.85;;;;;;;;;;5094650;28;20287;-83
2022/12/11 07:42:15;;;;;;;4.80;4.28;;;;;;;;;;5095317;28;20230;-83
2022/12/11 07:44:42;;;;;;;5.47;4.85;;;;;;;;;;5094846;28;20679;-84
2022/12/11 07:47:10;;;;;;;5.50;4.97;;;;;;;;;;5094110;28;20299;-84
2022/12/11 07:49:37;;;;;;;5.00;4.43;;;;;;;;;;5094289;28;20359;-84
2022/12/11 07:52:05;;;;;;;7.38;6.07;;;;;;;;;;5094020;28;20307;-83
2022/12/11 07:54:32;;;;;;;6.13;5.10;;;;;;;;;;5094026;28;20306;-85
2022/12/11 07:57:01;;;;;;;5.57;5.03;;;;;;;;;;5094150;28;20291;-83
2022/12/11 07:59:29;;;;;;;5.82;5.22;;;;;;;;;;5093872;28;20287;-84
2022/12/11 08:01:56;;;;;;;4.90;4.47;;;;;;;;;;5094030;28;20251;-85
2022/12/11 08:04:24;;;;;;;5.47;4.97;;;;;;;;;;5093660;28;20200;-85
2022/12/11 08:06:51;;;;;;;9.32;7.50;;;;;;;;;;5093827;28;20287;-84
2022/12/11 08:09:21;;;;;;;8.13;6.85;;;;;;;;;;5093789;28;20311;-85
2022/12/11 08:11:50;;;;;;;10.82;8.27;;;;;;;;;;5093844;28;20265;-85
2022/12/11 08:14:19;;;;;;;6.88;6.20;;;;;;;;;;5094123;28;20208;-84
2022/12/11 08:16:46;;;;;;;8.35;5.97;;;;;;;;;;5094155;28;20207;-85
2022/12/11 08:19:14;;;;;;;11.00;9.80;;;;;;;;;;5093611;28;20299;-84
2022/12/11 08:21:42;;;;;;;10.68;8.70;;;;;;;;;;5094085;28;20905;-84
2022/12/11 08:24:10;;;;;;;7.95;7.13;;;;;;;;;;5094111;28;20196;-84
2022/12/11 08:26:37;;;;;;;7.30;6.38;;;;;;;;;;5093824;28;20200;-85
2022/12/11 08:29:05;;;;;;;6.07;5.32;;;;;;;;;;5093326;28;20311;-85
2022/12/11 08:31:34;;;;;;;6.57;5.47;;;;;;;;;;5093834;28;20310;-83
2022/12/11 08:34:02;;;;;;;5.90;5.28;;;;;;;;;;5093907;28;20867;-84
2022/12/11 08:36:29;;;;;;;6.00;5.40;;;;;;;;;;5093949;28;20338;-84
2022/12/11 08:38:57;;;;;;;10.32;8.40;;;;;;;;;;5093319;28;20276;-85
2022/12/11 08:41:27;;;;;;;9.93;7.53;;;;;;;;;;5093445;28;20359;-84
2022/12/11 08:43:56;;;;;;;10.45;8.68;;;;;;;;;;5093713;28;20326;-83
2022/12/11 08:46:26;;;;;;;8.35;6.90;;;;;;;;;;5093715;28;20543;-84
2022/12/11 08:48:55;;;;;;;8.15;6.75;;;;;;;;;;5093315;28;20228;-84
2022/12/11 08:51:26;;;;;;;7.00;5.97;;;;;;;;;;5093042;28;20630;-84
2022/12/11 08:53:55;;;;;;;7.75;6.07;;;;;;;;;;5086911;28;20645;-84
2022/12/11 08:56:23;;;;;;;9.75;7.13;;;;;;;;;;5073290;28;20185;-83
2022/12/11 08:58:51;;;;;;;6.82;6.10;;;;;;;;;;5072775;28;20207;-82
2022/12/11 09:01:21;;;;;;;7.05;6.35;;;;;;;;;;5072764;28;20220;-82
2022/12/11 09:03:49;;;;;;;6.78;6.18;;;;;;;;;;5073142;28;20669;-83
2022/12/11 09:06:20;;;;;;;10.18;6.65;;;;;;;;;;5071955;28;20292;-84
2022/12/11 09:08:49;;;;;;;6.07;5.38;;;;;;;;;;5072234;28;20338;-85
2022/12/11 09:11:19;;;;;;;6.75;6.05;;;;;;;;;;5072616;28;20686;-84
2022/12/11 09:13:47;;;;;;;7.72;6.95;;;;;;;;;;5072907;28;20217;-83
2022/12/11 09:16:19;;;;;;;7.40;6.70;;;;;;;;;;5072944;28;20197;-82
2022/12/11 09:18:47;;;;;;;7.43;6.47;;;;;;;;;;5072452;28;20295;-84
2022/12/11 09:21:19;;;;;;;9.43;7.60;;;;;;;;;;5072698;28;20313;-84
2022/12/11 09:23:47;;;;;;;7.30;6.60;;;;;;;;;;5090245;28;20346;-83
2022/12/11 09:26:17;;;;;;;7.65;6.65;;;;;;;;;;5093162;28;20291;-84
2022/12/11 09:28:45;;;;;;;11.63;8.57;;;;;;;;;;5092857;28;20292;-84
2022/12/11 09:31:15;;;;;;;10.40;8.95;;;;;;;;;;5092474;28;20722;-84
2022/12/11 09:33:44;;;;;;;12.10;8.63;;;;;;;;;;5093083;28;20202;-85
2022/12/11 09:36:11;;;;;;;8.73;7.50;;;;;;;;;;5093038;28;20816;-83
2022/12/11 09:38:42;;;;;;;7.03;6.32;;;;;;;;;;5092332;28;20254;-84
2022/12/11 09:41:34;;;;;;;7.97;6.75;;;;;;;;;;5092616;28;20471;-84
2022/12/11 09:44:18;;;;;;;6.85;5.95;;;;;;;;;;5093065;28;20185;-84
2022/12/11 09:46:46;;;;;;;8.38;7.57;;;;;;;;;;5093121;28;20185;-84
2022/12/11 09:49:25;;;;;;;12.27;10.15;;;;;;;;;;5092857;28;20691;-84
2022/12/11 09:52:04;;;;;;;8.65;7.53;;;;;;;;;;5092754;28;20312;-84
2022/12/11 09:54:33;;;;;;;13.57;9.57;;;;;;;;;;5092793;28;20188;-84
2022/12/11 09:57:11;;;;;;;9.18;7.78;;;;;;;;;;5092533;28;20338;-84
2022/12/11 09:59:53;;;;;;;9.38;8.05;;;;;;;;;;5091297;28;20191;-84
2022/12/11 10:02:30;;;;;;;13.10;10.02;;;;;;;;;;5092629;28;20311;-83
2022/12/11 10:05:07;;;;;;;14.93;10.23;;;;;;;;;;5092721;28;20267;-84
2022/12/11 10:07:38;;;;;;;15.98;12.15;;;;;;;;;;5092796;28;20665;-83
2022/12/11 10:10:16;;;;;;;10.10;8.07;;;;;;;;;;5092209;28;20204;-85
2022/12/11 10:12:49;;;;;;;11.82;10.32;;;;;;;;;;5092309;28;20230;-84
2022/12/11 10:15:33;;;;;;;13.23;10.73;;;;;;;;;;5092623;28;20272;-84
2022/12/11 10:18:01;;;;;;;11.70;9.30;;;;;;;;;;5093989;28;20184;-85
2022/12/11 10:20:35;;;;;;;12.00;9.63;;;;;;;;;;5096293;28;20657;-83
2022/12/11 10:23:04;;;;;;;11.43;9.77;;;;;;;;;;5096208;28;20749;-85
2022/12/11 10:25:37;;;;;;;9.55;8.15;;;;;;;;;;5096199;28;20226;-83
2022/12/11 10:28:13;;;;;;;10.98;8.55;;;;;;;;;;5096234;28;20669;-83
2022/12/11 10:30:48;;;;;;;9.50;8.52;;;;;;;;;;5096122;28;20219;-82
2022/12/11 10:33:22;;;;;;;15.18;10.77;;;;;;;;;;5096144;28;20613;-83
2022/12/11 10:35:52;;;;;;;16.98;11.50;;;;;;;;;;5096233;28;20554;-82
2022/12/11 10:38:26;;;;;;;12.75;9.77;;;;;;;;;;5096225;28;20220;-84
2022/12/11 10:40:58;;;;;;;12.90;10.50;;;;;;;;;;5095883;28;20687;-82
2022/12/11 10:43:41;;;;;;;8.65;7.32;;;;;;;;;;5096051;28;20226;-83
2022/12/11 10:46:16;;;;;;;14.18;12.02;;;;;;;;;;5095972;28;20588;-85
2022/12/11 10:48:48;;;;;;;16.83;12.27;;;;;;;;;;5095966;28;20277;-84
2022/12/11 10:51:16;;;;;;;13.05;10.45;;;;;;;;;;5095494;28;20307;-82
2022/12/11 10:53:44;;;;;;;14.73;11.65;;;;;;;;;;5095523;28;20275;-82
2022/12/11 10:56:13;;;;;;;12.27;9.05;;;;;;;;;;5095554;28;20208;-85
2022/12/11 10:58:49;;;;;;;8.45;7.65;;;;;;;;;;5095955;28;20287;-83
2022/12/11 11:01:20;;;;;;;11.45;10.25;;;;;;;;;;5095530;28;20265;-83
2022/12/11 11:03:58;;;;;;;10.75;9.48;;;;;;;;;;5095346;28;20275;-84
2022/12/11 11:06:27;;;;;;;10.07;8.00;;;;;;;;;;5095597;28;20267;-84
2022/12/11 11:08:58;;;;;;;11.00;7.53;;;;;;;;;;5095778;28;20295;-83
2022/12/11 11:11:32;;;;;;;10.25;7.97;;;;;;;;;;5095363;28;20260;-83
2022/12/11 11:14:12;;;;;;;15.10;10.68;;;;;;;;;;5095749;28;20188;-85
2022/12/11 11:16:41;;;;;;;13.35;10.65;;;;;;;;;;5095409;28;20271;-83
2022/12/11 11:19:20;;;;;;;16.35;12.43;;;;;;;;;;5095449;28;20323;-84
2022/12/11 11:21:51;;;;;;;15.98;12.60;;;;;;;;;;5095227;28;20704;-82
2022/12/11 11:24:29;;;;;;;15.93;12.80;;;;;;;;;;5095672;28;20258;-82
2022/12/11 11:26:58;;;;;;;17.63;12.38;;;;;;;;;;5095575;28;20661;-83
2022/12/11 11:29:31;;;;;;;19.83;15.10;;;;;;;;;;5094612;28;20638;-84
2022/12/11 11:32:15;;;;;;;15.18;11.05;;;;;;;;;;5094807;28;20303;-84
2022/12/11 11:34:42;;;;;;;16.20;11.93;;;;;;;;;;5093864;28;20187;-83
2022/12/11 11:37:26;;;;;;;11.80;10.55;;;;;;;;;;5094806;28;20206;-84
2022/12/11 11:39:58;;;;;;;10.90;9.07;;;;;;;;;;5095202;28;20276;-82
2022/12/11 11:42:36;;;;;;;11.25;9.68;;;;;;;;;;5094817;28;20307;-84
2022/12/11 11:45:07;;;;;;;8.30;7.20;;;;;;;;;;5094704;28;20267;-84
2022/12/11 11:47:38;;;;;;;9.20;8.25;;;;;;;;;;5094646;28;20279;-84
2022/12/11 11:50:12;;;;;;;8.85;7.20;;;;;;;;;;5094705;28;20222;-84
2022/12/11 11:52:43;;;;;;;9.77;8.25;;;;;;;;;;5094436;28;20227;-83
2022/12/11 11:55:17;;;;;;;11.57;9.73;;;;;;;;;;5094676;28;20615;-84
2022/12/11 11:57:49;;;;;;;10.32;9.32;;;;;;;;;;5094406;28;20191;-84
2022/12/11 12:00:22;;;;;;;9.65;8.45;;;;;;;;;;5094614;28;20242;-83
2022/12/11 12:02:50;;;;;;;10.00;7.88;;;;;;;;;;5094494;28;20365;-83
2022/12/11 12:05:23;;;;;;;15.82;12.80;;;;;;;;;;5094396;28;20283;-83
2022/12/11 12:08:03;;;;;;;12.02;9.73;;;;;;;;;;5094241;28;20224;-84
2022/12/11 12:10:39;;;;;;;16.25;12.40;;;;;;;;;;5094331;28;20227;-84
2022/12/11 12:13:21;;;;;;;11.07;9.93;;;;;;;;;;5093831;28;20294;-83
2022/12/11 12:15:54;;;;;;;9.80;8.80;;;;;;;;;;5094208;28;20192;-83
2022/12/11 12:18:29;;;;;;;10.07;8.18;;;;;;;;;;5093846;28;20276;-83
2022/12/11 12:21:04;;;;;;;10.23;8.40;;;;;;;;;;5093837;28;20752;-82
2022/12/11 12:23:44;;;;;;;9.90;8.57;;;;;;;;;;5094410;28;20278;-85
2022/12/11 12:26:17;;;;;;;11.80;10.27;;;;;;;;;;5093879;28;20188;-83
2022/12/11 12:28:55;;;;;;;13.85;10.20;;;;;;;;;;5093865;28;20185;-82
2022/12/11 12:31:40;;;;;;;14.93;13.07;;;;;;;;;;5094073;28;20311;-84
2022/12/11 12:34:16;;;;;;;16.88;13.77;;;;;;;;;;5094056;28;20678;-84
2022/12/11 12:36:49;;;;;;;17.95;13.10;;;;;;;;;;5093955;28;20617;-84
2022/12/11 12:39:24;;;;;;;15.88;12.40;;;;;;;;;;5093742;28;20667;-83
2022/12/11 12:41:58;;;;;;;23.60;16.65;;;;;;;;;;5093580;28;20311;-85
2022/12/11 12:44:28;;;;;;;22.90;16.98;;;;;;;;;;5093403;28;20279;-85
2022/12/11 12:47:00;;;;;;;16.33;13.45;;;;;;;;;;5093382;28;20290;-84
2022/12/11 12:49:38;;;;;;;22.70;16.98;;;;;;;;;;5093427;28;20207;-84
2022/12/11 12:52:10;;;;;;;21.10;15.88;;;;;;;;;;5093462;28;20311;-84
2022/12/11 12:54:38;;;;;;;14.13;10.05;;;;;;;;;;5093895;28;20276;-84
2022/12/11 12:57:06;;;;;;;12.55;10.75;;;;;;;;;;5094862;28;20235;-84
2022/12/11 12:59:35;;;;;;;12.05;10.40;;;;;;;;;;5094417;28;20197;-83
2022/12/11 13:02:03;;;;;;;17.08;12.65;;;;;;;;;;5094414;28;20311;-85
2022/12/11 13:04:42;;;;;;;15.98;12.35;;;;;;;;;;5094805;28;20641;-82
2022/12/11 13:07:17;;;;;;;11.68;8.63;;;;;;;;;;5093965;28;20322;-84
2022/12/11 13:09:58;;;;;;;13.23;10.68;;;;;;;;;;5093908;28;20212;-84
2022/12/11 13:12:40;;;;;;;11.18;9.27;;;;;;;;;;5093903;28;20716;-83
2022/12/11 13:15:36;;;;;;;11.25;9.18;;;;;;;;;;5093351;28;20227;-84
2022/12/11 13:18:07;;;;;;;10.48;8.38;;;;;;;;;;5091639;28;20291;-84
2022/12/11 13:20:35;;;;;;;8.85;8.02;;;;;;;;;;5093137;28;20276;-84
2022/12/11 13:23:28;;;;;;;13.00;10.27;;;;;;;;;;5093720;28;20312;-84
2022/12/11 13:25:58;;;;;;;9.80;8.45;;;;;;;;;;5094357;28;20618;-85
2022/12/11 13:28:33;;;;;;;13.25;9.73;;;;;;;;;;5094447;28;20200;-87
2022/12/11 13:31:07;;;;;;;12.80;9.82;;;;;;;;;;5094694;28;20288;-84
2022/12/11 13:33:41;;;;;;;11.15;8.80;;;;;;;;;;5093970;28;20539;-85
2022/12/11 13:36:31;;;;;;;17.80;14.20;;;;;;;;;;5094184;28;20187;-86
2022/12/11 13:39:04;;;;;;;17.67;12.02;;;;;;;;;;5093975;28;20273;-85
2022/12/11 13:41:35;;;;;;;18.27;13.35;;;;;;;;;;5093898;28;20689;-86
2022/12/11 13:44:03;;;;;;;21.92;16.15;;;;;;;;;;5094006;28;20217;-84
2022/12/11 13:46:36;;;;;;;15.35;11.95;;;;;;;;;;5093641;28;20200;-84
2022/12/11 13:49:05;;;;;;;14.85;11.48;;;;;;;;;;5093180;28;20275;-85
2022/12/11 13:51:35;;;;;;;11.75;10.48;;;;;;;;;;5093836;28;20649;-83
2022/12/11 13:54:16;;;;;;;17.23;12.02;;;;;;;;;;5097149;28;20581;-83
2022/12/11 13:57:04;;;;;;;14.50;12.85;;;;;;;;;;5095368;28;20267;-84
2022/12/11 13:59:35;;;;;;;14.65;10.57;;;;;;;;;;5077788;28;20216;-85
2022/12/11 14:02:24;;;;;;;15.20;12.52;;;;;;;;;;5077256;28;20248;-85
2022/12/11 14:04:54;;;;;;;13.00;10.45;;;;;;;;;;5077290;28;20268;-84
2022/12/11 14:07:27;;;;;;;13.10;9.95;;;;;;;;;;5077498;28;20268;-84
2022/12/11 14:10:01;;;;;;;13.50;10.27;;;;;;;;;;5077973;28;20189;-84
2022/12/11 14:12:29;;;;;;;26.58;17.92;;;;;;;;;;5077275;28;20225;-84
2022/12/11 14:15:00;;;;;;;26.15;18.95;;;;;;;;;;5077220;28;20201;-84
2022/12/11 14:17:32;;;;;;;21.15;15.70;;;;;;;;;;5077616;28;20694;-85
2022/12/11 14:20:04;;;;;;;24.65;16.15;;;;;;;;;;5077635;28;20277;-85
2022/12/11 14:22:32;;;;;;;22.45;16.88;;;;;;;;;;5077934;28;20650;-85
2022/12/11 14:25:02;;;;;;;22.13;15.25;;;;;;;;;;5077212;28;20723;-83
2022/12/11 14:27:30;;;;;;;26.33;16.95;;;;;;;;;;5077635;28;20189;-85
2022/12/11 14:29:57;;;;;;;28.80;17.92;;;;;;;;;;5078791;28;20289;-85
2022/12/11 14:32:34;;;;;;;19.77;13.88;;;;;;;;;;5077709;28;20316;-86
2022/12/11 14:35:06;;;;;;;24.00;16.27;;;;;;;;;;5077852;28;20291;-85
2022/12/11 14:37:35;;;;;;;25.17;14.70;;;;;;;;;;5078036;28;20311;-86
2022/12/11 14:40:05;;;;;;;22.20;16.92;;;;;;;;;;5078162;28;20201;-86
2022/12/11 14:42:38;;;;;;;22.45;16.45;;;;;;;;;;5077410;28;20667;-86
2022/12/11 14:45:13;;;;;;;24.85;16.67;;;;;;;;;;5077901;28;20181;-85
2022/12/11 14:47:44;;;;;;;20.70;12.50;;;;;;;;;;5077771;28;20216;-84
2022/12/11 14:50:18;;;;;;;22.40;16.30;;;;;;;;;;5076171;28;20272;-84
2022/12/11 14:52:48;;;;;;;27.50;17.60;;;;;;;;;;5075713;28;20228;-85
2022/12/11 14:55:20;;;;;;;21.55;14.45;;;;;;;;;;5077011;28;20189;-85
2022/12/11 14:57:50;;;;;;;24.50;15.32;;;;;;;;;;5076769;28;20187;-85
2022/12/11 15:00:24;;;;;;;26.08;18.02;;;;;;;;;;5076860;28;20709;-83
2022/12/11 15:03:01;;;;;;;79.65;49.10;;;;;;;;;;5076560;28;20308;-84